Time;durP1;ratioP1;P1;durP2;ratioP2;P2;SDS_P1;SDS_P2;PMS_P1;PMS_P2;Temp;Humidity;BMP_temperature;BMP_pressure;BME280_temperature;BME280_humidity;BME280_pressure;Samples;Min_cycle;Max_cycle;Signal;HPM_P1;HPM_P2
2022/07/27 00:02:40;;;;;;;0.73;0.32;;;;;;;23.34;42.96;101957.91;16228312;19;128077;-62
2022/07/27 00:08:02;;;;;;;0.40;0.20;;;;;;;23.32;42.83;101948.94;16217891;19;128617;-59
2022/07/27 00:13:24;;;;;;;1.27;0.38;;;;;;;23.29;42.97;101959.78;16217816;19;129069;-62
2022/07/27 00:18:45;;;;;;;0.73;0.30;;;;;;;23.29;43.27;101948.59;16218924;19;130026;-62
2022/07/27 00:24:07;;;;;;;1.65;0.30;;;;;;;23.27;43.01;101951.63;16217651;19;128234;-62
2022/07/27 00:29:29;;;;;;;0.47;0.20;;;;;;;23.27;43.35;101951.63;16220990;19;127900;-62
2022/07/27 00:34:51;;;;;;;0.73;0.30;;;;;;;23.26;43.65;101963.06;16217321;19;127706;-62
2022/07/27 00:40:13;;;;;;;0.20;0.15;;;;;;;23.28;43.60;101963.66;16221559;19;128754;-62
2022/07/27 00:45:35;;;;;;;0.55;0.20;;;;;;;23.27;43.84;101943.25;16216106;19;129110;-62
2022/07/27 00:50:56;;;;;;;1.95;0.22;;;;;;;23.25;43.78;101956.66;16217022;19;128408;-62
2022/07/27 00:56:19;;;;;;;0.60;0.30;;;;;;;23.24;44.00;101957.75;16219536;19;129210;-62
2022/07/27 01:01:41;;;;;;;0.90;0.20;;;;;;;23.23;43.97;101961.63;16163099;19;129401;-62
2022/07/27 01:07:05;;;;;;;0.22;0.20;;;;;;;23.22;44.02;101959.94;16146297;19;129541;-63
2022/07/27 01:12:29;;;;;;;2.08;0.50;;;;;;;23.23;43.86;101956.03;16139068;19;128987;-63
2022/07/27 01:17:50;;;;;;;0.20;0.10;;;;;;;23.21;44.08;101952.66;16140912;19;129755;-63
2022/07/27 01:23:12;;;;;;;0.75;0.20;;;;;;;23.21;44.12;101947.06;16142073;19;129270;-62
2022/07/27 01:28:34;;;;;;;0.70;0.30;;;;;;;23.20;44.21;101957.38;16140780;19;129227;-62
2022/07/27 01:33:56;;;;;;;0.65;0.20;;;;;;;23.19;44.43;101954.84;16134339;19;130248;-62
2022/07/27 01:39:18;;;;;;;0.60;0.20;;;;;;;23.18;44.24;101947.56;16140653;19;130138;-62
2022/07/27 01:44:40;;;;;;;0.30;0.22;;;;;;;23.17;43.92;101945.88;16138501;19;129939;-62
2022/07/27 01:50:02;;;;;;;0.10;0.10;;;;;;;23.16;44.36;101928.28;16138868;19;129083;-62
2022/07/27 01:55:24;;;;;;;0.10;0.10;;;;;;;23.15;44.27;101937.75;16134319;19;128954;-62
2022/07/27 02:00:48;;;;;;;0.20;0.10;;;;;;;23.17;44.43;101929.13;16141639;19;130307;-62
2022/07/27 02:06:09;;;;;;;0.52;0.22;;;;;;;23.17;44.49;101943.09;16139774;19;129220;-63
2022/07/27 02:17:11;;;;;;;0.15;0.10;;;;;;;23.15;44.02;101922.94;16139582;19;129571;-62
2022/07/27 02:22:33;;;;;;;0.77;0.35;;;;;;;23.14;44.58;101926.88;16139198;19;129861;-62
2022/07/27 02:27:54;;;;;;;0.95;0.22;;;;;;;23.14;44.65;101929.66;16133934;19;130271;-62
2022/07/27 02:33:16;;;;;;;0.20;0.10;;;;;;;23.12;44.87;101926.28;16134948;19;129563;-63
2022/07/27 02:38:38;;;;;;;0.40;0.17;;;;;;;23.12;44.84;101931.84;16138354;19;129540;-62
2022/07/27 02:44:00;;;;;;;0.20;0.10;;;;;;;23.12;44.36;101923.47;16137070;19;129433;-63
2022/07/27 02:49:22;;;;;;;0.28;0.20;;;;;;;23.10;44.49;101934.88;16151399;19;129498;-63
2022/07/27 02:54:44;;;;;;;0.10;0.10;;;;;;;23.10;44.39;101934.03;16149765;19;129235;-62
2022/07/27 03:00:11;;;;;;;0.52;0.10;;;;;;;23.10;44.54;101931.25;16150619;19;130671;-63
2022/07/27 03:05:33;;;;;;;0.80;0.10;;;;;;;23.08;44.58;101931.47;16147569;19;130650;-62
2022/07/27 03:10:55;;;;;;;0.80;0.20;;;;;;;23.07;44.58;101935.41;16145677;19;129828;-63
2022/07/27 03:16:16;;;;;;;0.43;0.10;;;;;;;23.04;44.47;101936.72;16143194;19;129402;-62
2022/07/27 03:21:38;;;;;;;0.17;0.10;;;;;;;23.05;44.78;101938.44;16145904;19;129124;-62
2022/07/27 03:27:00;;;;;;;0.20;0.08;;;;;;;23.05;44.63;101935.63;16143884;19;129536;-62
2022/07/27 03:32:22;;;;;;;0.10;0.10;;;;;;;23.04;44.40;101947.91;16146310;19;129156;-63
2022/07/27 03:37:44;;;;;;;0.45;0.20;;;;;;;23.03;44.54;101943.41;16147262;19;129067;-63
2022/07/27 03:43:06;;;;;;;0.20;0.15;;;;;;;23.02;44.61;101944.50;16148249;19;129997;-62
2022/07/27 03:48:28;;;;;;;0.75;0.10;;;;;;;23.01;44.73;101954.00;16146981;19;129471;-63
2022/07/27 03:53:50;;;;;;;0.20;0.10;;;;;;;23.00;44.68;101945.88;16139269;19;130393;-62
2022/07/27 03:59:12;;;;;;;0.10;0.10;;;;;;;23.00;44.59;101941.16;16147142;19;129900;-62
2022/07/27 04:04:34;;;;;;;0.10;0.10;;;;;;;22.99;44.71;101945.03;16200037;19;129079;-62
2022/07/27 04:09:56;;;;;;;0.05;0.05;;;;;;;22.99;44.67;101939.44;16222879;19;128491;-63
2022/07/27 04:15:17;;;;;;;0.40;0.10;;;;;;;22.98;44.70;101940.53;16175346;19;128902;-63
2022/07/27 04:20:39;;;;;;;0.00;0.00;;;;;;;22.99;44.66;101950.59;16144213;19;131580;-62
2022/07/27 04:26:01;;;;;;;0.50;0.10;;;;;;;22.97;44.37;101950.00;16143416;19;130455;-63
2022/07/27 04:31:23;;;;;;;0.32;0.20;;;;;;;22.96;44.89;101956.69;16143452;19;129162;-62
2022/07/27 04:36:45;;;;;;;0.05;0.03;;;;;;;22.95;44.76;101954.16;16140583;19;130016;-63
2022/07/27 04:42:07;;;;;;;0.08;0.08;;;;;;;22.95;44.49;101960.56;16143564;19;129864;-63
2022/07/27 04:47:29;;;;;;;0.17;0.10;;;;;;;22.91;44.55;101962.16;16143087;19;130118;-62
2022/07/27 04:52:50;;;;;;;0.20;0.00;;;;;;;22.91;44.68;101964.94;16141731;19;129928;-63
2022/07/27 04:58:13;;;;;;;0.10;0.10;;;;;;;22.93;44.58;101964.72;16142563;19;129442;-63
2022/07/27 05:03:35;;;;;;;0.20;0.00;;;;;;;22.92;44.60;101971.41;16142603;19;129413;-63
2022/07/27 05:08:57;;;;;;;0.20;0.10;;;;;;;22.89;44.81;101978.31;16139953;19;129221;-62
2022/07/27 05:14:19;;;;;;;1.33;0.30;;;;;;;22.87;44.91;101980.50;16139302;19;129524;-62
2022/07/27 05:19:42;;;;;;;1.48;0.50;;;;;;;22.84;43.78;101980.97;16135389;19;129422;-62
2022/07/27 05:25:04;;;;;;;2.28;0.32;;;;;;;22.79;43.59;101983.66;16141814;19;130553;-61
2022/07/27 05:30:26;;;;;;;11.00;0.60;;;;;;;22.77;43.08;101986.72;16141428;19;131669;-62
2022/07/27 05:35:49;;;;;;;5.88;0.50;;;;;;;22.78;43.07;101990.34;16136985;19;129577;-62
2022/07/27 05:41:11;;;;;;;4.53;1.20;;;;;;;22.70;41.07;101986.84;16140153;19;130127;-61
2022/07/27 05:46:33;;;;;;;3.35;1.50;;;;;;;22.63;40.20;101997.31;16139705;19;128939;-61
2022/07/27 05:51:55;;;;;;;4.57;1.55;;;;;;;22.58;39.60;101991.63;16139375;19;129686;-61
2022/07/27 05:57:17;;;;;;;5.80;1.52;;;;;;;22.59;39.28;101998.91;16133738;19;129432;-63
2022/07/27 06:02:39;;;;;;;4.65;1.65;;;;;;;22.59;38.99;101991.38;16139039;19;129537;-61
2022/07/27 06:08:07;;;;;;;6.78;1.65;;;;;;;22.62;38.46;101995.63;16140448;19;129550;-61
2022/07/27 06:13:30;;;;;;;2.40;1.30;;;;;;;22.63;38.35;101996.47;16137435;19;129802;-75
2022/07/27 06:18:52;;;;;;;6.38;1.83;;;;;;;22.66;38.59;101996.81;16134622;19;129895;-75
2022/07/27 06:24:13;;;;;;;5.97;1.92;;;;;;;22.71;38.46;101998.84;16141619;19;129292;-66
2022/07/27 06:29:35;;;;;;;4.85;1.73;;;;;;;22.83;38.27;102008.00;16138513;19;129482;-64
2022/07/27 06:34:58;;;;;;;2.70;1.30;;;;;;;22.95;38.20;101999.63;16135363;19;129647;-64
2022/07/27 06:40:21;;;;;;;6.22;1.55;;;;;;;23.07;37.78;101996.81;16139848;19;130062;-64
2022/07/27 06:45:47;;;;;;;2.90;1.17;;;;;;;23.17;37.67;101996.13;16138140;19;129180;-64
2022/07/27 06:51:09;;;;;;;3.60;1.30;;;;;;;23.28;37.66;102006.38;16136381;19;129568;-64
2022/07/27 06:56:31;;;;;;;7.18;1.30;;;;;;;23.38;37.90;102007.66;16133946;19;130118;-64
2022/07/27 07:01:53;;;;;;;2.58;0.90;;;;;;;23.46;37.75;102001.66;16136526;19;129335;-64
2022/07/27 07:07:15;;;;;;;3.92;0.80;;;;;;;23.53;38.08;102007.91;16138057;19;129389;-64
2022/07/27 07:12:36;;;;;;;4.38;0.60;;;;;;;23.59;37.98;102008.88;16135939;19;129375;-64
2022/07/27 07:17:58;;;;;;;1.42;0.68;;;;;;;23.62;38.23;102016.75;16137623;19;129289;-65
2022/07/27 07:23:23;;;;;;;2.10;0.70;;;;;;;23.65;38.04;102025.47;16130730;19;129439;-64
2022/07/27 07:28:44;;;;;;;2.72;0.60;;;;;;;23.68;38.13;102014.88;16136401;19;129137;-64
2022/07/27 07:34:06;;;;;;;2.40;0.70;;;;;;;23.68;38.02;102012.09;16147802;19;129388;-64
2022/07/27 07:39:28;;;;;;;2.28;0.60;;;;;;;23.64;38.14;102025.72;16149843;19;128965;-64
2022/07/27 07:44:52;;;;;;;2.08;0.50;;;;;;;23.60;38.25;102018.94;16150535;19;129494;-64
2022/07/27 07:50:14;;;;;;;1.45;0.43;;;;;;;23.61;38.18;102029.03;16148382;19;128971;-64
2022/07/27 07:55:36;;;;;;;1.55;0.50;;;;;;;23.57;38.34;102023.06;16144049;19;128995;-64
2022/07/27 08:00:57;;;;;;;3.38;0.55;;;;;;;23.55;38.16;102025.25;16148808;19;129376;-64
2022/07/27 08:06:19;;;;;;;1.50;0.50;;;;;;;23.54;38.49;102033.91;16144861;19;130068;-64
2022/07/27 08:11:41;;;;;;;1.83;0.50;;;;;;;23.52;38.53;102028.56;16147274;19;130057;-63
2022/07/27 08:17:03;;;;;;;1.20;0.40;;;;;;;23.50;38.58;102028.81;16146613;19;130077;-65
2022/07/27 08:22:25;;;;;;;2.15;0.38;;;;;;;23.52;38.21;102031.34;16145736;19;129264;-63
2022/07/27 08:27:47;;;;;;;2.47;0.47;;;;;;;23.54;38.53;102023.56;16146848;19;128994;-63
2022/07/27 08:33:08;;;;;;;1.40;0.50;;;;;;;23.55;38.43;102030.84;16142164;19;129145;-64
2022/07/27 08:38:30;;;;;;;1.42;0.43;;;;;;;23.58;37.84;102035.97;16146811;19;128935;-63
2022/07/27 08:43:53;;;;;;;6.70;0.55;;;;;;;23.61;38.08;102029.88;16145764;19;130942;-64
2022/07/27 08:49:16;;;;;;;1.80;0.65;;;;;;;23.60;38.10;102022.59;16144657;19;129456;-63
2022/07/27 08:54:40;;;;;;;6.25;0.50;;;;;;;23.61;37.72;102029.03;16143122;19;129444;-63
2022/07/27 09:00:02;;;;;;;1.17;0.50;;;;;;;23.58;37.59;102026.69;16145645;19;129499;-65
2022/07/27 09:05:24;;;;;;;2.30;0.47;;;;;;;23.59;37.37;102028.41;16142703;19;129964;-64
2022/07/27 09:10:59;;;;;;;3.90;0.40;;;;;;;23.57;36.97;102033.41;16142113;19;129506;-63
2022/07/27 09:16:29;;;;;;;4.82;0.80;;;;;;;23.54;36.85;102029.16;16141364;19;128970;-64
2022/07/27 09:22:10;;;;;;;3.85;0.45;;;;;;;23.44;36.64;102026.19;16140714;19;130266;-62
2022/07/27 09:27:32;;;;;;;2.67;0.60;;;;;;;23.37;36.77;102031.09;16142591;19;129701;-61
2022/07/27 09:33:00;;;;;;;5.60;0.60;;;;;;;23.34;36.92;102029.63;16140537;19;129311;-62
2022/07/27 09:38:23;;;;;;;1.50;0.40;;;;;;;23.30;36.62;102029.31;16137472;19;129129;-63
2022/07/27 09:43:48;;;;;;;1.65;0.60;;;;;;;23.30;36.28;102028.47;16143344;19;128841;-63
2022/07/27 09:49:33;;;;;;;2.10;0.60;;;;;;;23.31;36.36;102027.38;16139810;19;129567;-61
2022/07/27 09:55:04;;;;;;;6.70;0.70;;;;;;;23.33;36.16;102026.00;16139288;19;129129;-62
2022/07/27 10:00:26;;;;;;;1.58;0.60;;;;;;;23.37;36.66;102022.72;16140809;19;128979;-63
2022/07/27 10:05:47;;;;;;;7.68;0.73;;;;;;;23.39;36.02;102020.50;16141211;19;129518;-63
2022/07/27 10:11:10;;;;;;;3.35;0.70;;;;;;;23.37;35.95;102019.94;16136890;19;129780;-63
2022/07/27 10:16:33;;;;;;;4.28;0.65;;;;;;;23.34;35.92;102015.69;16135553;19;129440;-63
2022/07/27 10:21:55;;;;;;;3.03;0.80;;;;;;;23.32;35.76;102004.78;16139708;19;130188;-63
2022/07/27 10:27:28;;;;;;;2.65;0.80;;;;;;;23.34;35.42;102008.16;16137045;19;130959;-63
2022/07/27 10:32:49;;;;;;;3.47;0.50;;;;;;;23.34;36.06;102002.59;16136394;19;129271;-63
2022/07/27 10:38:16;;;;;;;2.58;0.43;;;;;;;23.38;35.88;102011.28;16131499;19;129439;-63
2022/07/27 10:43:38;;;;;;;1.67;0.60;;;;;;;23.40;36.45;102005.44;16135623;19;130531;-63
2022/07/27 10:49:16;;;;;;;3.03;0.50;;;;;;;23.43;35.85;102002.16;16137798;19;129921;-63
2022/07/27 10:54:38;;;;;;;1.08;0.38;;;;;;;23.42;36.67;101997.66;16132838;19;129961;-63
2022/07/27 11:00:08;;;;;;;1.60;0.50;;;;;;;23.41;36.67;101991.25;16135315;19;129219;-63
2022/07/27 11:05:35;;;;;;;1.67;0.68;;;;;;;23.40;36.06;101983.09;16143818;19;129807;-63
2022/07/27 11:11:23;;;;;;;2.05;0.50;;;;;;;23.37;35.93;101986.44;16147012;19;130256;-62
2022/07/27 11:16:45;;;;;;;3.72;0.50;;;;;;;23.35;36.49;101995.91;16148192;19;129350;-63
2022/07/27 11:22:29;;;;;;;1.45;0.40;;;;;;;23.38;35.68;102002.09;16149767;19;128872;-63
2022/07/27 11:28:11;;;;;;;1.67;0.50;;;;;;;23.35;36.01;102004.28;16150368;19;130332;-62
2022/07/27 11:33:33;;;;;;;4.50;0.80;;;;;;;23.38;36.00;102004.88;16147841;19;129384;-59
2022/07/27 11:38:55;;;;;;;1.15;0.40;;;;;;;23.40;36.04;102006.31;16149907;19;130027;-63
2022/07/27 11:44:17;;;;;;;3.38;0.40;;;;;;;23.43;36.18;101999.38;16150197;19;129962;-60
2022/07/27 11:49:39;;;;;;;1.27;0.30;;;;;;;23.45;36.10;101992.41;16144998;19;129446;-62
2022/07/27 11:55:01;;;;;;;1.15;0.40;;;;;;;23.48;36.01;101982.72;16145988;19;129946;-60
2022/07/27 12:00:23;;;;;;;2.13;0.40;;;;;;;23.49;36.13;101979.66;16147030;19;128983;-59
2022/07/27 12:05:50;;;;;;;1.08;0.40;;;;;;;23.52;35.92;101978.28;16148480;19;129489;-62
2022/07/27 12:11:11;;;;;;;1.80;0.38;;;;;;;23.52;36.30;101986.66;16145997;19;129704;-59
2022/07/27 12:16:33;;;;;;;5.35;1.13;;;;;;;23.57;35.97;101983.97;16141714;19;129403;-59
2022/07/27 12:21:55;;;;;;;5.85;0.65;;;;;;;23.60;36.04;101971.47;16145660;19;129315;-58
2022/07/27 12:27:17;;;;;;;5.88;0.43;;;;;;;23.61;36.71;101974.00;16146135;19;129148;-60
2022/07/27 12:32:43;;;;;;;5.28;0.50;;;;;;;23.61;36.30;101968.44;16137048;19;129668;-60
2022/07/27 12:38:08;;;;;;;2.60;0.40;;;;;;;23.59;36.32;101969.75;16138868;19;129557;-62
2022/07/27 12:43:29;;;;;;;4.93;0.45;;;;;;;23.55;36.07;101962.97;16143819;19;129336;-59
2022/07/27 12:48:51;;;;;;;7.55;0.75;;;;;;;23.51;36.20;101952.31;16139031;19;128994;-59
2022/07/27 12:54:13;;;;;;;5.93;0.90;;;;;;;23.54;36.22;101947.31;16143387;19;130921;-58
2022/07/27 12:59:34;;;;;;;4.15;0.75;;;;;;;23.54;35.85;101945.38;16142190;19;129997;-58
2022/07/27 13:04:56;;;;;;;12.55;0.73;;;;;;;23.53;36.25;101949.25;16140519;19;129881;-59
2022/07/27 13:10:18;;;;;;;5.07;0.50;;;;;;;23.58;36.22;101949.38;16144108;19;129187;-59
2022/07/27 13:15:40;;;;;;;2.53;0.40;;;;;;;23.61;36.38;101943.28;16141238;19;130206;-59
2022/07/27 13:21:02;;;;;;;2.17;0.38;;;;;;;23.63;36.19;101932.69;16142222;19;129518;-58
2022/07/27 13:26:24;;;;;;;6.68;0.40;;;;;;;23.66;36.23;101921.00;16140758;19;128963;-59
2022/07/27 13:31:48;;;;;;;1.30;0.40;;;;;;;23.69;35.95;101910.41;16141461;19;129413;-63
2022/07/27 13:37:17;;;;;;;1.35;0.30;;;;;;;23.68;36.09;101906.78;16137714;19;129512;-61
2022/07/27 13:42:39;;;;;;;3.10;0.60;;;;;;;23.68;35.72;101912.38;16137347;19;129114;-60
2022/07/27 13:48:01;;;;;;;3.53;0.45;;;;;;;23.68;35.91;101912.38;16136645;19;131653;-61
2022/07/27 13:53:25;;;;;;;1.55;0.30;;;;;;;23.65;35.89;101905.34;16138120;19;130714;-64
2022/07/27 13:58:46;;;;;;;1.40;0.30;;;;;;;23.66;35.87;101895.84;16135858;19;129472;-59
2022/07/27 14:04:11;;;;;;;1.33;0.30;;;;;;;23.66;35.81;101884.69;16140536;19;129651;-61
2022/07/27 14:15:25;;;;;;;4.20;0.30;;;;;;;23.69;35.79;101885.28;16127932;19;130652;-64
2022/07/27 14:20:47;;;;;;;4.60;0.50;;;;;;;23.68;35.47;101883.56;16127174;19;128954;-61
2022/07/27 14:26:09;;;;;;;2.50;0.40;;;;;;;23.61;35.34;101895.81;16127621;19;129447;-62
2022/07/27 14:31:33;;;;;;;1.52;0.40;;;;;;;23.57;35.30;101894.59;16128625;19;129740;-60
2022/07/27 14:36:55;;;;;;;2.63;0.20;;;;;;;23.55;35.72;101884.78;16124433;19;131050;-58
2022/07/27 14:42:22;;;;;;;1.27;0.30;;;;;;;23.55;35.44;101885.59;16124144;19;130043;-61
2022/07/27 14:47:44;;;;;;;1.30;0.30;;;;;;;23.56;36.21;101886.47;16130262;19;129142;-61
2022/07/27 14:53:06;;;;;;;1.48;0.30;;;;;;;23.57;35.85;101883.41;16139498;19;128868;-59
2022/07/27 14:58:28;;;;;;;0.75;0.20;;;;;;;23.58;35.67;101868.38;16133438;19;129686;-63
2022/07/27 15:03:54;;;;;;;1.65;0.40;;;;;;;23.59;35.90;101872.84;16134372;19;132387;-56
2022/07/27 15:09:15;;;;;;;1.20;0.40;;;;;;;23.58;35.98;101868.38;16136648;19;129529;-57
2022/07/27 15:14:42;;;;;;;1.08;0.20;;;;;;;23.56;35.87;101866.91;16136695;19;129580;-60
2022/07/27 15:20:07;;;;;;;0.52;0.22;;;;;;;23.56;35.80;101862.16;16136280;19;129444;-58
2022/07/27 15:25:29;;;;;;;0.88;0.30;;;;;;;23.55;35.68;101857.69;16136994;19;129172;-64
2022/07/27 15:30:50;;;;;;;0.30;0.10;;;;;;;23.55;35.60;101863.25;16132959;19;130122;-61
2022/07/27 15:36:12;;;;;;;1.48;0.20;;;;;;;23.54;35.74;101850.41;16128248;19;128972;-56
2022/07/27 15:41:54;;;;;;;0.55;0.15;;;;;;;23.54;35.54;101841.19;16131248;19;129513;-59
2022/07/27 15:47:15;;;;;;;2.83;0.20;;;;;;;23.54;35.48;101830.84;16134082;19;130248;-59
2022/07/27 15:52:37;;;;;;;1.00;0.32;;;;;;;23.53;35.62;101820.78;16144618;19;128997;-58
2022/07/27 15:57:59;;;;;;;0.25;0.20;;;;;;;23.55;35.79;101824.16;16144777;19;129465;-58
2022/07/27 16:03:21;;;;;;;0.47;0.28;;;;;;;23.53;35.93;101826.34;16145042;19;129237;-59
2022/07/27 16:08:46;;;;;;;0.30;0.22;;;;;;;23.53;35.80;101817.97;16141857;19;129702;-60
2022/07/27 16:14:07;;;;;;;0.28;0.10;;;;;;;23.48;35.84;101818.75;16142174;19;130616;-62
2022/07/27 16:19:29;;;;;;;0.35;0.20;;;;;;;23.49;35.97;101816.81;16141435;19;130343;-58
2022/07/27 16:24:51;;;;;;;1.20;0.30;;;;;;;23.48;35.61;101812.34;16145211;19;129908;-58
2022/07/27 16:30:13;;;;;;;1.83;0.38;;;;;;;23.47;35.69;101816.25;16145878;19;129633;-60
2022/07/27 16:35:42;;;;;;;2.60;0.20;;;;;;;23.45;35.29;101802.50;16139419;19;131429;-60
2022/07/27 16:41:08;;;;;;;0.40;0.20;;;;;;;23.45;35.63;101810.06;16140526;19;130047;-59
2022/07/27 16:46:29;;;;;;;0.52;0.20;;;;;;;23.45;35.89;101801.69;16144853;19;129479;-58
2022/07/27 16:51:51;;;;;;;0.90;0.30;;;;;;;23.46;35.72;101789.41;16144390;19;129577;-58
2022/07/27 16:57:14;;;;;;;0.35;0.20;;;;;;;23.44;35.92;101791.63;16138579;19;129471;-58
2022/07/27 17:02:36;;;;;;;0.40;0.20;;;;;;;23.46;35.79;101801.41;16142940;19;130171;-59
2022/07/27 17:07:58;;;;;;;1.02;0.30;;;;;;;23.46;35.50;101798.63;16143846;19;130394;-59
2022/07/27 17:13:20;;;;;;;0.40;0.28;;;;;;;23.46;35.27;101792.22;16145807;19;129627;-58
2022/07/27 17:18:41;;;;;;;0.88;0.20;;;;;;;23.46;35.82;101786.63;16139632;19;128846;-59
2022/07/27 17:24:03;;;;;;;1.08;0.20;;;;;;;23.46;35.25;101786.63;16144578;19;129256;-58
2022/07/27 17:29:25;;;;;;;0.28;0.10;;;;;;;23.46;35.67;101781.88;16138883;19;128907;-59
2022/07/27 17:34:47;;;;;;;1.35;0.25;;;;;;;23.45;35.34;101769.00;16139007;19;130745;-59
2022/07/27 17:40:09;;;;;;;1.05;0.28;;;;;;;23.43;35.13;101781.53;16136128;19;129484;-58
2022/07/27 17:45:31;;;;;;;2.40;0.20;;;;;;;23.42;35.42;101774.28;16142822;19;130290;-59
2022/07/27 17:50:52;;;;;;;1.85;0.13;;;;;;;23.42;35.36;101771.47;16142645;19;129504;-60
2022/07/27 17:56:14;;;;;;;1.13;0.40;;;;;;;23.38;35.34;101773.13;16139979;19;129509;-57
2022/07/27 18:01:36;;;;;;;2.70;0.30;;;;;;;23.35;35.06;101766.94;16140676;19;128903;-59
2022/07/27 18:07:08;;;;;;;3.25;0.30;;;;;;;23.32;35.31;101770.25;16140343;19;129614;-59
2022/07/27 18:12:30;;;;;;;0.60;0.10;;;;;;;23.32;35.37;101775.81;16138577;19;129353;-59
2022/07/27 18:17:52;;;;;;;0.50;0.30;;;;;;;23.30;35.11;101791.16;16134808;19;130270;-59
2022/07/27 18:23:14;;;;;;;1.20;0.32;;;;;;;23.27;35.04;101795.28;16138089;19;130411;-59
2022/07/27 18:28:37;;;;;;;0.75;0.20;;;;;;;23.29;35.03;101792.25;16140676;19;129332;-59
2022/07/27 18:34:01;;;;;;;1.17;0.20;;;;;;;23.27;35.29;101800.03;16136455;19;129495;-59
2022/07/27 18:39:23;;;;;;;0.52;0.20;;;;;;;23.24;35.16;101801.41;16134441;19;129109;-59
2022/07/27 18:44:55;;;;;;;0.77;0.30;;;;;;;23.24;35.14;101806.13;16138083;19;129387;-59
2022/07/27 18:50:17;;;;;;;0.55;0.20;;;;;;;23.20;35.43;101811.38;16137317;19;129619;-59
2022/07/27 18:55:38;;;;;;;0.45;0.15;;;;;;;23.21;35.35;101813.06;16133266;19;129198;-60
2022/07/27 19:01:00;;;;;;;0.17;0.10;;;;;;;23.20;35.40;101805.81;16133724;19;129018;-60
2022/07/27 19:06:22;;;;;;;0.13;0.10;;;;;;;23.23;35.51;101805.28;16132351;19;129139;-59
2022/07/27 19:11:45;;;;;;;1.20;0.30;;;;;;;23.19;35.55;101807.75;16135113;19;129360;-59
2022/07/27 19:17:07;;;;;;;0.45;0.10;;;;;;;23.18;35.82;101808.00;16133754;19;130021;-59
2022/07/27 19:22:36;;;;;;;0.38;0.20;;;;;;;23.16;35.76;101802.69;16125555;19;130161;-59
2022/07/27 19:27:58;;;;;;;0.08;0.08;;;;;;;23.16;35.87;101815.78;16138926;19;129760;-59
2022/07/27 19:33:20;;;;;;;0.45;0.20;;;;;;;23.13;35.88;101822.72;16142594;19;130796;-59
2022/07/27 19:38:42;;;;;;;0.52;0.15;;;;;;;23.12;35.88;101820.19;16138731;19;130695;-59
2022/07/27 19:44:05;;;;;;;0.55;0.20;;;;;;;23.11;35.98;101832.47;16145435;19;129288;-59
2022/07/27 19:49:27;;;;;;;1.02;0.20;;;;;;;23.10;35.97;101827.97;16143856;19;129049;-59
2022/07/27 19:54:49;;;;;;;1.17;0.20;;;;;;;23.08;36.00;101831.00;16144951;19;129463;-59
2022/07/27 20:00:11;;;;;;;0.43;0.20;;;;;;;23.06;36.07;101836.03;16140319;19;130077;-59
2022/07/27 20:05:33;;;;;;;0.50;0.20;;;;;;;23.03;35.97;101842.09;16144451;19;129613;-59
2022/07/27 20:10:55;;;;;;;0.10;0.10;;;;;;;23.01;36.18;101842.38;16145104;19;131116;-58
2022/07/27 20:16:17;;;;;;;0.90;0.20;;;;;;;23.00;36.42;101846.25;16142764;19;129292;-62
2022/07/27 20:21:39;;;;;;;2.42;0.20;;;;;;;23.03;36.69;101836.53;16146517;19;130531;-62
2022/07/27 20:27:00;;;;;;;3.78;0.40;;;;;;;23.06;36.64;101844.41;16144650;19;129742;-59
2022/07/27 20:32:22;;;;;;;5.32;0.25;;;;;;;23.08;36.86;101852.50;16142128;19;130362;-59
2022/07/27 20:37:45;;;;;;;7.22;0.70;;;;;;;23.07;36.61;101856.38;16138923;19;129808;-60
2022/07/27 20:43:07;;;;;;;3.42;0.60;;;;;;;23.05;36.69;101849.13;16141395;19;129560;-60
2022/07/27 20:48:29;;;;;;;6.28;0.68;;;;;;;23.03;36.63;101845.72;16140594;19;129210;-60
2022/07/27 20:53:51;;;;;;;9.52;0.40;;;;;;;23.02;36.39;101852.41;16135255;19;131249;-60
2022/07/27 20:59:12;;;;;;;9.15;0.60;;;;;;;23.02;36.85;101855.19;16137725;19;129585;-60
2022/07/27 21:04:37;;;;;;;3.83;0.30;;;;;;;22.99;36.51;101844.56;16145213;19;129678;-59
2022/07/27 21:09:59;;;;;;;4.13;0.32;;;;;;;22.98;36.55;101845.66;16142301;19;129474;-60
2022/07/27 21:15:21;;;;;;;2.22;0.32;;;;;;;22.98;36.65;101842.88;16138086;19;129369;-60
2022/07/27 21:20:54;;;;;;;3.40;0.50;;;;;;;22.97;36.68;101846.75;16137967;19;129901;-60
2022/07/27 21:26:15;;;;;;;0.90;0.40;;;;;;;22.97;36.66;101857.06;16140605;19;130668;-60
2022/07/27 21:31:39;;;;;;;0.77;0.30;;;;;;;22.95;36.81;101853.72;16138166;19;129732;-58
2022/07/27 21:37:01;;;;;;;6.88;0.43;;;;;;;22.94;36.75;101852.00;16139771;19;129668;-59
2022/07/27 21:42:23;;;;;;;1.40;0.30;;;;;;;22.91;36.76;101846.94;16139986;19;129853;-60
2022/07/27 21:47:44;;;;;;;1.10;0.20;;;;;;;22.91;36.62;101850.56;16138475;19;131298;-59
2022/07/27 21:53:06;;;;;;;3.50;0.40;;;;;;;22.89;36.67;101849.94;16140968;19;129823;-60
2022/07/27 21:58:28;;;;;;;1.08;0.30;;;;;;;22.89;36.70;101849.94;16135800;19;130291;-60
2022/07/27 22:03:50;;;;;;;1.48;0.30;;;;;;;22.88;36.64;101837.09;16139427;19;130318;-60
2022/07/27 22:09:13;;;;;;;1.02;0.22;;;;;;;22.87;36.38;101852.16;16134881;19;129666;-59
2022/07/27 22:14:34;;;;;;;0.85;0.40;;;;;;;22.89;36.63;101844.38;16138514;19;129642;-60
2022/07/27 22:19:56;;;;;;;0.90;0.28;;;;;;;22.86;36.65;101847.66;16134463;19;129581;-60
2022/07/27 22:25:18;;;;;;;1.50;0.40;;;;;;;22.85;36.79;101849.59;16139493;19;128979;-60
2022/07/27 22:30:40;;;;;;;1.80;0.35;;;;;;;22.85;36.70;101837.59;16138310;19;129599;-60
2022/07/27 22:36:02;;;;;;;0.88;0.40;;;;;;;22.84;36.57;101847.06;16134597;19;130360;-60
2022/07/27 22:41:24;;;;;;;0.45;0.20;;;;;;;22.85;36.93;101843.19;16135313;19;129328;-60
2022/07/27 22:46:45;;;;;;;0.17;0.15;;;;;;;22.82;36.98;101843.69;16138195;19;129940;-60
2022/07/27 22:52:07;;;;;;;1.42;0.30;;;;;;;22.81;36.39;101847.56;16135661;19;128909;-60
2022/07/27 22:57:29;;;;;;;0.22;0.20;;;;;;;22.79;36.68;101849.75;16131310;19;131501;-60
2022/07/27 23:02:50;;;;;;;0.30;0.20;;;;;;;22.79;36.94;101850.63;16150083;19;131221;-60
2022/07/27 23:08:12;;;;;;;0.10;0.10;;;;;;;22.79;36.69;101838.59;16147033;19;129371;-60
2022/07/27 23:13:34;;;;;;;0.20;0.20;;;;;;;22.78;36.49;101828.53;16151324;19;130235;-60
2022/07/27 23:18:56;;;;;;;0.60;0.20;;;;;;;22.79;36.95;101844.16;16147930;19;129355;-60
2022/07/27 23:24:17;;;;;;;4.60;0.40;;;;;;;22.78;36.64;101834.09;16149844;19;129603;-59
2022/07/27 23:29:49;;;;;;;4.22;0.30;;;;;;;22.77;36.49;101829.66;16151370;19;129223;-60
2022/07/27 23:35:11;;;;;;;0.60;0.30;;;;;;;22.77;36.63;101838.03;16146157;19;130393;-59
2022/07/27 23:40:32;;;;;;;2.10;0.40;;;;;;;22.74;36.39;101836.56;16179295;19;130121;-60
2022/07/27 23:45:54;;;;;;;0.70;0.22;;;;;;;22.74;36.41;101834.63;16232988;19;129186;-60
2022/07/27 23:51:17;;;;;;;0.90;0.50;;;;;;;22.73;36.93;101834.88;16230925;19;128110;-62
2022/07/27 23:56:39;;;;;;;0.30;0.20;;;;;;;22.72;36.57;101827.59;16231133;19;128305;-60
